sensor_id;sensor_type;location;lat;lon;timestamp;pressure;altitude;pressure_sealevel;temperature;humidity
41264;BME280;26998;48.714;9.414;2023-02-11T00:00:20;101361.56;;;-4.37;100.00
41264;BME280;26998;48.714;9.414;2023-02-11T00:02:47;101365.00;;;-4.35;100.00
41264;BME280;26998;48.714;9.414;2023-02-11T00:05:14;101377.97;;;-4.32;100.00
41264;BME280;26998;48.714;9.414;2023-02-11T00:07:41;101372.00;;;-4.37;100.00
41264;BME280;26998;48.714;9.414;2023-02-11T00:10:08;101385.81;;;-4.32;100.00
41264;BME280;26998;48.714;9.414;2023-02-11T00:12:36;101379.75;;;-4.32;100.00
41264;BME280;26998;48.714;9.414;2023-02-11T00:15:04;101371.94;;;-4.34;100.00
41264;BME280;26998;48.714;9.414;2023-02-11T00:17:31;101373.84;;;-4.39;100.00
41264;BME280;26998;48.714;9.414;2023-02-11T00:19:58;101377.41;;;-4.43;100.00
41264;BME280;26998;48.714;9.414;2023-02-11T00:22:25;101376.53;;;-4.44;100.00
41264;BME280;26998;48.714;9.414;2023-02-11T00:24:51;101389.69;;;-4.47;100.00
41264;BME280;26998;48.714;9.414;2023-02-11T00:27:18;101387.19;;;-4.51;100.00
41264;BME280;26998;48.714;9.414;2023-02-11T00:29:45;101386.47;;;-4.56;100.00
41264;BME280;26998;48.714;9.414;2023-02-11T00:32:12;101389.16;;;-4.59;100.00
41264;BME280;26998;48.714;9.414;2023-02-11T00:34:39;101392.66;;;-4.60;100.00
41264;BME280;26998;48.714;9.414;2023-02-11T00:37:05;101401.28;;;-4.58;100.00
41264;BME280;26998;48.714;9.414;2023-02-11T00:39:32;101398.13;;;-4.70;100.00
41264;BME280;26998;48.714;9.414;2023-02-11T00:41:58;101404.25;;;-4.72;100.00
41264;BME280;26998;48.714;9.414;2023-02-11T00:44:25;101404.28;;;-4.74;100.00
41264;BME280;26998;48.714;9.414;2023-02-11T00:46:52;101406.88;;;-4.74;100.00
41264;BME280;26998;48.714;9.414;2023-02-11T00:49:18;101416.38;;;-4.70;100.00
41264;BME280;26998;48.714;9.414;2023-02-11T00:51:45;101418.22;;;-4.73;100.00
41264;BME280;26998;48.714;9.414;2023-02-11T00:54:12;101409.66;;;-4.80;100.00
41264;BME280;26998;48.714;9.414;2023-02-11T00:56:38;101412.25;;;-4.78;100.00
41264;BME280;26998;48.714;9.414;2023-02-11T00:59:05;101428.59;;;-4.72;100.00
41264;BME280;26998;48.714;9.414;2023-02-11T01:01:31;101425.97;;;-4.70;100.00
41264;BME280;26998;48.714;9.414;2023-02-11T01:03:58;101435.41;;;-4.66;100.00
41264;BME280;26998;48.714;9.414;2023-02-11T01:06:25;101428.53;;;-4.69;100.00
41264;BME280;26998;48.714;9.414;2023-02-11T01:08:51;101431.19;;;-4.70;100.00
41264;BME280;26998;48.714;9.414;2023-02-11T01:11:19;101424.22;;;-4.71;100.00
41264;BME280;26998;48.714;9.414;2023-02-11T01:13:48;101412.16;;;-4.75;100.00
41264;BME280;26998;48.714;9.414;2023-02-11T01:16:15;101414.69;;;-4.72;100.00
41264;BME280;26998;48.714;9.414;2023-02-11T01:18:42;101405.03;;;-4.69;100.00
41264;BME280;26998;48.714;9.414;2023-02-11T01:21:10;101400.72;;;-4.70;100.00
41264;BME280;26998;48.714;9.414;2023-02-11T01:23:36;101389.50;;;-4.73;100.00
41264;BME280;26998;48.714;9.414;2023-02-11T01:26:03;101382.63;;;-4.76;100.00
41264;BME280;26998;48.714;9.414;2023-02-11T01:28:30;101372.34;;;-4.82;100.00
41264;BME280;26998;48.714;9.414;2023-02-11T01:30:57;101362.91;;;-4.89;100.00
41264;BME280;26998;48.714;9.414;2023-02-11T01:33:23;101354.38;;;-4.94;100.00
41264;BME280;26998;48.714;9.414;2023-02-11T01:35:50;101362.28;;;-4.97;100.00
41264;BME280;26998;48.714;9.414;2023-02-11T01:38:23;101360.66;;;-5.01;100.00
41264;BME280;26998;48.714;9.414;2023-02-11T01:40:52;101381.38;;;-4.97;100.00
41264;BME280;26998;48.714;9.414;2023-02-11T01:43:21;101374.47;;;-4.98;100.00
41264;BME280;26998;48.714;9.414;2023-02-11T01:48:19;101364.97;;;-5.02;100.00
41264;BME280;26998;48.714;9.414;2023-02-11T01:50:49;101370.94;;;-4.95;100.00
41264;BME280;26998;48.714;9.414;2023-02-11T01:53:18;101381.31;;;-4.94;100.00
41264;BME280;26998;48.714;9.414;2023-02-11T01:55:45;101374.31;;;-4.92;100.00
41264;BME280;26998;48.714;9.414;2023-02-11T01:58:12;101370.03;;;-4.94;100.00
41264;BME280;26998;48.714;9.414;2023-02-11T02:00:39;101369.19;;;-4.95;100.00
41264;BME280;26998;48.714;9.414;2023-02-11T02:03:09;101357.09;;;-4.99;100.00
41264;BME280;26998;48.714;9.414;2023-02-11T02:06:00;101353.69;;;-5.02;100.00
41264;BME280;26998;48.714;9.414;2023-02-11T02:08:38;101347.72;;;-5.06;100.00
41264;BME280;26998;48.714;9.414;2023-02-11T02:11:06;101349.47;;;-5.06;100.00
41264;BME280;26998;48.714;9.414;2023-02-11T02:13:34;101354.69;;;-5.06;100.00
41264;BME280;26998;48.714;9.414;2023-02-11T02:16:09;101351.22;;;-5.07;100.00
41264;BME280;26998;48.714;9.414;2023-02-11T02:19:04;101357.13;;;-5.00;100.00
41264;BME280;26998;48.714;9.414;2023-02-11T02:21:55;101368.25;;;-4.92;100.00
41264;BME280;26998;48.714;9.414;2023-02-11T02:27:32;101362.06;;;-4.90;100.00
41264;BME280;26998;48.714;9.414;2023-02-11T02:38:31;101340.94;;;-4.79;100.00
41264;BME280;26998;48.714;9.414;2023-02-11T02:41:03;101327.91;;;-4.79;100.00
41264;BME280;26998;48.714;9.414;2023-02-11T02:43:32;101325.28;;;-4.79;100.00
41264;BME280;26998;48.714;9.414;2023-02-11T02:46:10;101318.50;;;-4.86;100.00
41264;BME280;26998;48.714;9.414;2023-02-11T02:48:38;101316.09;;;-4.92;100.00
41264;BME280;26998;48.714;9.414;2023-02-11T02:53:41;101329.34;;;-5.01;100.00
41264;BME280;26998;48.714;9.414;2023-02-11T02:56:17;101323.53;;;-5.13;100.00
41264;BME280;26998;48.714;9.414;2023-02-11T02:59:08;101323.63;;;-5.17;100.00
41264;BME280;26998;48.714;9.414;2023-02-11T03:01:56;101327.16;;;-5.18;100.00
41264;BME280;26998;48.714;9.414;2023-02-11T03:07:30;101344.69;;;-5.25;100.00
41264;BME280;26998;48.714;9.414;2023-02-11T03:10:08;101356.81;;;-5.22;100.00
41264;BME280;26998;48.714;9.414;2023-02-11T03:12:36;101370.63;;;-5.19;100.00
41264;BME280;26998;48.714;9.414;2023-02-11T03:15:05;101381.00;;;-5.17;100.00
41264;BME280;26998;48.714;9.414;2023-02-11T03:17:33;101377.47;;;-5.15;100.00
41264;BME280;26998;48.714;9.414;2023-02-11T03:20:03;101373.97;;;-5.14;100.00
41264;BME280;26998;48.714;9.414;2023-02-11T03:22:37;101380.91;;;-5.13;100.00
41264;BME280;26998;48.714;9.414;2023-02-11T03:25:06;101374.84;;;-5.15;100.00
41264;BME280;26998;48.714;9.414;2023-02-11T03:27:37;101372.22;;;-5.13;100.00
41264;BME280;26998;48.714;9.414;2023-02-11T03:32:49;101366.88;;;-5.07;100.00
41264;BME280;26998;48.714;9.414;2023-02-11T03:35:20;101372.81;;;-5.02;100.00
41264;BME280;26998;48.714;9.414;2023-02-11T03:40:24;101366.81;;;-5.05;100.00
41264;BME280;26998;48.714;9.414;2023-02-11T03:42:57;101370.25;;;-5.03;100.00
41264;BME280;26998;48.714;9.414;2023-02-11T03:45:25;101373.72;;;-5.03;100.00
41264;BME280;26998;48.714;9.414;2023-02-11T03:48:03;101357.22;;;-5.03;100.00
41264;BME280;26998;48.714;9.414;2023-02-11T03:50:31;101354.56;;;-5.02;100.00
41264;BME280;26998;48.714;9.414;2023-02-11T03:53:00;101346.63;;;-4.97;100.00
41264;BME280;26998;48.714;9.414;2023-02-11T03:55:29;101346.47;;;-4.91;100.00
41264;BME280;26998;48.714;9.414;2023-02-11T03:57:58;101348.00;;;-4.82;100.00
41264;BME280;26998;48.714;9.414;2023-02-11T04:00:32;101339.19;;;-4.78;100.00
41264;BME280;26998;48.714;9.414;2023-02-11T04:02:59;101331.13;;;-4.69;100.00
41264;BME280;26998;48.714;9.414;2023-02-11T04:05:25;101328.44;;;-4.66;100.00
41264;BME280;26998;48.714;9.414;2023-02-11T04:07:52;101326.59;;;-4.62;100.00
41264;BME280;26998;48.714;9.414;2023-02-11T04:10:19;101319.63;;;-4.62;100.00
41264;BME280;26998;48.714;9.414;2023-02-11T04:12:46;101321.38;;;-4.62;100.00
41264;BME280;26998;48.714;9.414;2023-02-11T04:15:13;101330.88;;;-4.60;100.00
41264;BME280;26998;48.714;9.414;2023-02-11T04:17:39;101333.44;;;-4.58;100.00
41264;BME280;26998;48.714;9.414;2023-02-11T04:20:07;101336.66;;;-4.49;100.00
41264;BME280;26998;48.714;9.414;2023-02-11T04:22:34;101344.41;;;-4.46;100.00
41264;BME280;26998;48.714;9.414;2023-02-11T04:25:01;101334.00;;;-4.47;100.00
41264;BME280;26998;48.714;9.414;2023-02-11T04:27:28;101334.00;;;-4.47;100.00
41264;BME280;26998;48.714;9.414;2023-02-11T04:29:54;101325.41;;;-4.51;100.00
41264;BME280;26998;48.714;9.414;2023-02-11T04:32:21;101333.34;;;-4.55;100.00
41264;BME280;26998;48.714;9.414;2023-02-11T04:34:48;101338.56;;;-4.55;100.00
41264;BME280;26998;48.714;9.414;2023-02-11T04:37:14;101351.44;;;-4.48;100.00
41264;BME280;26998;48.714;9.414;2023-02-11T04:39:41;101362.59;;;-4.43;100.00
41264;BME280;26998;48.714;9.414;2023-02-11T04:42:07;101366.94;;;-4.42;100.00
41264;BME280;26998;48.714;9.414;2023-02-11T04:44:34;101370.25;;;-4.36;100.00
41264;BME280;26998;48.714;9.414;2023-02-11T04:47:01;101371.81;;;-4.29;100.00
41264;BME280;26998;48.714;9.414;2023-02-11T04:49:27;101371.66;;;-4.23;100.00
41264;BME280;26998;48.714;9.414;2023-02-11T04:51:54;101364.59;;;-4.20;100.00
41264;BME280;26998;48.714;9.414;2023-02-11T04:54:21;101349.78;;;-4.21;100.00
41264;BME280;26998;48.714;9.414;2023-02-11T04:56:47;101347.19;;;-4.21;100.00
41264;BME280;26998;48.714;9.414;2023-02-11T04:59:14;101341.94;;;-4.19;100.00
41264;BME280;26998;48.714;9.414;2023-02-11T05:01:41;101333.94;;;-4.13;100.00
41264;BME280;26998;48.714;9.414;2023-02-11T05:04:07;101331.97;;;-4.05;100.00
41264;BME280;26998;48.714;9.414;2023-02-11T05:06:34;101334.44;;;-4.00;100.00
41264;BME280;26998;48.714;9.414;2023-02-11T05:09:00;101322.19;;;-3.98;100.00
41264;BME280;26998;48.714;9.414;2023-02-11T05:11:27;101301.50;;;-4.06;100.00
41264;BME280;26998;48.714;9.414;2023-02-11T05:13:53;101309.03;;;-3.95;100.00
41264;BME280;26998;48.714;9.414;2023-02-11T05:16:20;101299.28;;;-3.90;100.00
41264;BME280;26998;48.714;9.414;2023-02-11T05:18:47;101293.03;;;-3.84;100.00
41264;BME280;26998;48.714;9.414;2023-02-11T05:21:18;101286.75;;;-3.79;100.00
41264;BME280;26998;48.714;9.414;2023-02-11T05:23:44;101267.56;;;-3.78;100.00
41264;BME280;26998;48.714;9.414;2023-02-11T05:26:12;101239.75;;;-3.80;100.00
41264;BME280;26998;48.714;9.414;2023-02-11T05:28:39;101238.59;;;-3.70;100.00
41264;BME280;26998;48.714;9.414;2023-02-11T05:31:06;101217.72;;;-3.72;100.00
41264;BME280;26998;48.714;9.414;2023-02-11T05:33:33;101217.03;;;-3.77;100.00
41264;BME280;26998;48.714;9.414;2023-02-11T05:36:05;101207.13;;;-3.67;100.00
41264;BME280;26998;48.714;9.414;2023-02-11T05:38:33;101204.63;;;-3.70;100.00
41264;BME280;26998;48.714;9.414;2023-02-11T05:41:00;101201.25;;;-3.74;100.00
41264;BME280;26998;48.714;9.414;2023-02-11T05:43:27;101205.50;;;-3.71;100.00
41264;BME280;26998;48.714;9.414;2023-02-11T05:45:53;101204.66;;;-3.72;100.00
41264;BME280;26998;48.714;9.414;2023-02-11T05:48:20;101203.88;;;-3.74;100.00
41264;BME280;26998;48.714;9.414;2023-02-11T05:50:47;101213.19;;;-3.66;100.00
41264;BME280;26998;48.714;9.414;2023-02-11T05:53:13;101225.97;;;-3.57;100.00
41264;BME280;26998;48.714;9.414;2023-02-11T05:55:40;101214.56;;;-3.55;100.00
41264;BME280;26998;48.714;9.414;2023-02-11T05:58:07;101210.19;;;-3.54;100.00
41264;BME280;26998;48.714;9.414;2023-02-11T06:00:33;101199.66;;;-3.53;100.00
41264;BME280;26998;48.714;9.414;2023-02-11T06:03:00;101187.66;;;-3.58;100.00
41264;BME280;26998;48.714;9.414;2023-02-11T06:05:27;101198.88;;;-3.55;100.00
41264;BME280;26998;48.714;9.414;2023-02-11T06:07:53;101210.22;;;-3.56;100.00
41264;BME280;26998;48.714;9.414;2023-02-11T06:10:20;101213.56;;;-3.51;100.00
41264;BME280;26998;48.714;9.414;2023-02-11T06:12:46;101218.72;;;-3.49;100.00
41264;BME280;26998;48.714;9.414;2023-02-11T06:15:13;101225.69;;;-3.48;100.00
41264;BME280;26998;48.714;9.414;2023-02-11T06:17:39;101230.69;;;-3.42;100.00
41264;BME280;26998;48.714;9.414;2023-02-11T06:20:07;101235.72;;;-3.36;100.00
41264;BME280;26998;48.714;9.414;2023-02-11T06:22:33;101223.44;;;-3.34;100.00
41264;BME280;26998;48.714;9.414;2023-02-11T06:25:00;101220.06;;;-3.37;100.00
41264;BME280;26998;48.714;9.414;2023-02-11T06:27:28;101227.88;;;-3.36;100.00
41264;BME280;26998;48.714;9.414;2023-02-11T06:29:54;101232.47;;;-3.42;100.00
41264;BME280;26998;48.714;9.414;2023-02-11T06:32:21;101242.94;;;-3.42;100.00
41264;BME280;26998;48.714;9.414;2023-02-11T06:35:09;101241.16;;;-3.42;100.00
41264;BME280;26998;48.714;9.414;2023-02-11T06:37:38;101242.97;;;-3.44;100.00
41264;BME280;26998;48.714;9.414;2023-02-11T06:40:05;101249.03;;;-3.43;100.00
41264;BME280;26998;48.714;9.414;2023-02-11T06:42:33;101256.13;;;-3.47;100.00
41264;BME280;26998;48.714;9.414;2023-02-11T06:44:59;101256.03;;;-3.44;100.00
41264;BME280;26998;48.714;9.414;2023-02-11T06:47:26;101256.88;;;-3.43;100.00
41264;BME280;26998;48.714;9.414;2023-02-11T06:49:52;101265.53;;;-3.41;100.00
41264;BME280;26998;48.714;9.414;2023-02-11T06:52:19;101268.91;;;-3.38;100.00
41264;BME280;26998;48.714;9.414;2023-02-11T06:54:45;101265.34;;;-3.35;100.00
41264;BME280;26998;48.714;9.414;2023-02-11T06:57:12;101271.19;;;-3.27;100.00
41264;BME280;26998;48.714;9.414;2023-02-11T06:59:39;101264.94;;;-3.23;100.00
41264;BME280;26998;48.714;9.414;2023-02-11T07:02:08;101270.72;;;-3.13;100.00
41264;BME280;26998;48.714;9.414;2023-02-11T07:04:35;101266.19;;;-3.08;100.00
41264;BME280;26998;48.714;9.414;2023-02-11T07:07:04;101266.13;;;-3.07;100.00
41264;BME280;26998;48.714;9.414;2023-02-11T07:09:31;101267.78;;;-3.04;100.00
41264;BME280;26998;48.714;9.414;2023-02-11T07:11:57;101258.16;;;-3.04;100.00
41264;BME280;26998;48.714;9.414;2023-02-11T07:14:24;101250.31;;;-3.04;100.00
41264;BME280;26998;48.714;9.414;2023-02-11T07:16:50;101231.25;;;-3.07;100.00
41264;BME280;26998;48.714;9.414;2023-02-11T07:19:18;101214.75;;;-3.09;100.00
41264;BME280;26998;48.714;9.414;2023-02-11T07:21:45;101215.25;;;-2.98;100.00
41264;BME280;26998;48.714;9.414;2023-02-11T07:24:11;101205.34;;;-2.90;100.00
41264;BME280;26998;48.714;9.414;2023-02-11T07:26:38;101193.81;;;-2.84;100.00
41264;BME280;26998;48.714;9.414;2023-02-11T07:29:05;101187.16;;;-2.69;100.00
41264;BME280;26998;48.714;9.414;2023-02-11T07:31:32;101174.19;;;-2.49;100.00
41264;BME280;26998;48.714;9.414;2023-02-11T07:34:00;101147.09;;;-2.48;100.00
41264;BME280;26998;48.714;9.414;2023-02-11T07:36:28;101132.84;;;-2.41;100.00
41264;BME280;26998;48.714;9.414;2023-02-11T07:38:56;101124.28;;;-2.22;100.00
41264;BME280;26998;48.714;9.414;2023-02-11T07:41:24;101111.16;;;-2.00;100.00
41264;BME280;26998;48.714;9.414;2023-02-11T07:43:51;101088.84;;;-1.89;100.00
41264;BME280;26998;48.714;9.414;2023-02-11T07:46:24;101077.13;;;-1.80;100.00
41264;BME280;26998;48.714;9.414;2023-02-11T07:48:52;101070.03;;;-1.57;100.00
41264;BME280;26998;48.714;9.414;2023-02-11T07:51:25;101042.44;;;-1.46;100.00
41264;BME280;26998;48.714;9.414;2023-02-11T07:53:52;101021.88;;;-1.36;100.00
41264;BME280;26998;48.714;9.414;2023-02-11T07:56:20;100998.06;;;-1.31;100.00
41264;BME280;26998;48.714;9.414;2023-02-11T07:58:47;100996.94;;;-1.07;100.00
41264;BME280;26998;48.714;9.414;2023-02-11T08:01:16;100972.81;;;-0.96;100.00
41264;BME280;26998;48.714;9.414;2023-02-11T08:03:44;100956.50;;;-0.66;100.00
41264;BME280;26998;48.714;9.414;2023-02-11T08:06:13;100923.41;;;-0.34;100.00
41264;BME280;26998;48.714;9.414;2023-02-11T08:08:41;100880.53;;;-0.52;100.00
41264;BME280;26998;48.714;9.414;2023-02-11T08:11:10;100884.59;;;-0.64;100.00
41264;BME280;26998;48.714;9.414;2023-02-11T08:13:40;100881.50;;;-0.72;100.00
41264;BME280;26998;48.714;9.414;2023-02-11T08:16:32;100888.91;;;-0.63;100.00
41264;BME280;26998;48.714;9.414;2023-02-11T08:18:59;100889.69;;;-0.61;100.00
41264;BME280;26998;48.714;9.414;2023-02-11T08:21:27;100895.03;;;-0.80;100.00
41264;BME280;26998;48.714;9.414;2023-02-11T08:23:54;100910.78;;;-0.80;100.00
41264;BME280;26998;48.714;9.414;2023-02-11T08:26:24;100923.97;;;-0.81;100.00
41264;BME280;26998;48.714;9.414;2023-02-11T08:28:52;100916.72;;;-0.76;100.00
41264;BME280;26998;48.714;9.414;2023-02-11T08:31:22;100922.91;;;-0.77;100.00
41264;BME280;26998;48.714;9.414;2023-02-11T08:33:50;100922.59;;;-0.54;100.00
41264;BME280;26998;48.714;9.414;2023-02-11T08:36:20;100910.63;;;-0.42;100.00
41264;BME280;26998;48.714;9.414;2023-02-11T08:38:47;100901.91;;;-0.42;100.00
41264;BME280;26998;48.714;9.414;2023-02-11T08:41:15;100901.19;;;-0.11;100.00
41264;BME280;26998;48.714;9.414;2023-02-11T08:43:43;100877.31;;;-0.24;100.00
41264;BME280;26998;48.714;9.414;2023-02-11T08:46:14;100875.75;;;-0.28;100.00
41264;BME280;26998;48.714;9.414;2023-02-11T08:48:42;100870.13;;;-0.20;100.00
41264;BME280;26998;48.714;9.414;2023-02-11T08:51:16;100859.69;;;-0.22;100.00
41264;BME280;26998;48.714;9.414;2023-02-11T08:53:43;100856.09;;;-0.04;100.00
41264;BME280;26998;48.714;9.414;2023-02-11T08:56:11;100841.88;;;0.01;100.00
41264;BME280;26998;48.714;9.414;2023-02-11T08:58:39;100841.94;;;-0.01;100.00
41264;BME280;26998;48.714;9.414;2023-02-11T09:01:23;100843.19;;;0.25;100.00
41264;BME280;26998;48.714;9.414;2023-02-11T09:03:50;100815.41;;;0.67;100.00
41264;BME280;26998;48.714;9.414;2023-02-11T09:06:18;100784.44;;;0.40;100.00
41264;BME280;26998;48.714;9.414;2023-02-11T09:08:46;100808.19;;;0.71;100.00
41264;BME280;26998;48.714;9.414;2023-02-11T09:11:15;100805.53;;;0.86;100.00
41264;BME280;26998;48.714;9.414;2023-02-11T09:13:44;100785.91;;;1.22;100.00
41264;BME280;26998;48.714;9.414;2023-02-11T09:16:19;100755.53;;;1.74;100.00
41264;BME280;26998;48.714;9.414;2023-02-11T09:18:47;100739.63;;;2.31;100.00
41264;BME280;26998;48.714;9.414;2023-02-11T09:21:15;100707.81;;;2.47;100.00
41264;BME280;26998;48.714;9.414;2023-02-11T09:23:42;100698.13;;;2.60;100.00
41264;BME280;26998;48.714;9.414;2023-02-11T09:26:21;100696.44;;;2.59;100.00
41264;BME280;26998;48.714;9.414;2023-02-11T09:28:48;100679.59;;;2.87;100.00
41264;BME280;26998;48.714;9.414;2023-02-11T09:31:17;100678.84;;;3.11;100.00
41264;BME280;26998;48.714;9.414;2023-02-11T09:33:46;100677.41;;;2.54;100.00
41264;BME280;26998;48.714;9.414;2023-02-11T09:36:16;100678.47;;;2.64;100.00
41264;BME280;26998;48.714;9.414;2023-02-11T09:38:43;100674.72;;;2.94;100.00
41264;BME280;26998;48.714;9.414;2023-02-11T09:43:58;100672.09;;;3.07;100.00
41264;BME280;26998;48.714;9.414;2023-02-11T09:46:30;100665.13;;;3.31;100.00
41264;BME280;26998;48.714;9.414;2023-02-11T09:48:58;100666.47;;;3.11;100.00
41264;BME280;26998;48.714;9.414;2023-02-11T09:51:39;100672.25;;;3.55;100.00
41264;BME280;26998;48.714;9.414;2023-02-11T09:54:15;100663.16;;;3.72;100.00
41264;BME280;26998;48.714;9.414;2023-02-11T09:56:45;100668.91;;;3.89;100.00
41264;BME280;26998;48.714;9.414;2023-02-11T09:59:14;100671.34;;;3.05;100.00
41264;BME280;26998;48.714;9.414;2023-02-11T10:01:47;100658.75;;;2.83;100.00
41264;BME280;26998;48.714;9.414;2023-02-11T10:18:36;100693.81;;;2.72;100.00
41264;BME280;26998;48.714;9.414;2023-02-11T10:23:53;100686.25;;;2.93;100.00
41264;BME280;26998;48.714;9.414;2023-02-11T10:26:21;100675.25;;;2.99;100.00
41264;BME280;26998;48.714;9.414;2023-02-11T10:28:51;100686.66;;;3.51;100.00
41264;BME280;26998;48.714;9.414;2023-02-11T10:31:26;100686.31;;;3.68;100.00
41264;BME280;26998;48.714;9.414;2023-02-11T10:34:00;100681.34;;;4.00;100.00
41264;BME280;26998;48.714;9.414;2023-02-11T10:36:32;100676.56;;;4.53;100.00
41264;BME280;26998;48.714;9.414;2023-02-11T10:39:01;100672.16;;;4.65;100.00
41264;BME280;26998;48.714;9.414;2023-02-11T10:41:40;100667.88;;;4.98;100.00
41264;BME280;26998;48.714;9.414;2023-02-11T10:44:20;100652.38;;;5.38;100.00
41264;BME280;26998;48.714;9.414;2023-02-11T10:46:49;100656.44;;;5.76;97.77
41264;BME280;26998;48.714;9.414;2023-02-11T10:52:19;100644.06;;;5.76;96.31
41264;BME280;26998;48.714;9.414;2023-02-11T10:57:49;100637.47;;;5.48;97.83
41264;BME280;26998;48.714;9.414;2023-02-11T11:00:42;100644.41;;;5.61;96.20
41264;BME280;26998;48.714;9.414;2023-02-11T11:03:20;100623.19;;;5.72;95.94
41264;BME280;26998;48.714;9.414;2023-02-11T11:06:02;100623.34;;;5.25;98.62
41264;BME280;26998;48.714;9.414;2023-02-11T11:08:43;100613.56;;;5.60;98.43
41264;BME280;26998;48.714;9.414;2023-02-11T11:11:13;100606.03;;;5.76;98.25
41264;BME280;26998;48.714;9.414;2023-02-11T11:13:52;100602.44;;;5.77;98.35
41264;BME280;26998;48.714;9.414;2023-02-11T11:21:46;100612.56;;;7.10;91.57
41264;BME280;26998;48.714;9.414;2023-02-11T11:24:26;100607.16;;;7.72;88.02
41264;BME280;26998;48.714;9.414;2023-02-11T11:26:56;100609.44;;;7.96;80.63
41264;BME280;26998;48.714;9.414;2023-02-11T11:29:25;100603.28;;;7.95;79.97
41264;BME280;26998;48.714;9.414;2023-02-11T11:32:01;100600.41;;;7.58;83.38
41264;BME280;26998;48.714;9.414;2023-02-11T11:34:31;100594.31;;;7.96;81.36
41264;BME280;26998;48.714;9.414;2023-02-11T11:37:01;100599.25;;;8.20;80.48
41264;BME280;26998;48.714;9.414;2023-02-11T11:39:35;100606.06;;;7.94;78.49
41264;BME280;26998;48.714;9.414;2023-02-11T11:42:04;100600.75;;;8.03;78.40
41264;BME280;26998;48.714;9.414;2023-02-11T11:44:36;100594.31;;;7.86;79.44
41264;BME280;26998;48.714;9.414;2023-02-11T11:50:24;100591.44;;;7.59;81.01
41264;BME280;26998;48.714;9.414;2023-02-11T11:55:17;100586.63;;;8.51;80.58
41264;BME280;26998;48.714;9.414;2023-02-11T11:57:44;100585.28;;;8.94;76.52
41264;BME280;26998;48.714;9.414;2023-02-11T12:00:27;100585.06;;;8.59;74.34
41264;BME280;26998;48.714;9.414;2023-02-11T12:11:44;100579.16;;;8.74;73.39
41264;BME280;26998;48.714;9.414;2023-02-11T12:34:07;100579.03;;;9.13;73.94
41264;BME280;26998;48.714;9.414;2023-02-11T12:36:43;100580.56;;;8.78;78.63
41264;BME280;26998;48.714;9.414;2023-02-11T12:39:39;100581.69;;;8.56;78.95
41264;BME280;26998;48.714;9.414;2023-02-11T12:50:39;100568.97;;;8.60;81.63
41264;BME280;26998;48.714;9.414;2023-02-11T12:53:17;100563.03;;;8.37;83.93
41264;BME280;26998;48.714;9.414;2023-02-11T12:55:55;100556.75;;;7.90;86.94
41264;BME280;26998;48.714;9.414;2023-02-11T12:58:26;100560.41;;;8.08;89.10
41264;BME280;26998;48.714;9.414;2023-02-11T13:01:15;100548.91;;;7.88;88.07
41264;BME280;26998;48.714;9.414;2023-02-11T13:03:46;100542.88;;;8.15;87.73
41264;BME280;26998;48.714;9.414;2023-02-11T13:06:19;100541.06;;;8.16;86.71
41264;BME280;26998;48.714;9.414;2023-02-11T13:08:54;100542.31;;;8.31;86.13
41264;BME280;26998;48.714;9.414;2023-02-11T13:11:45;100539.09;;;8.47;85.11
41264;BME280;26998;48.714;9.414;2023-02-11T13:14:21;100534.28;;;8.70;85.30
41264;BME280;26998;48.714;9.414;2023-02-11T13:16:50;100531.44;;;8.71;84.12
41264;BME280;26998;48.714;9.414;2023-02-11T13:19:29;100534.53;;;8.76;84.15
41264;BME280;26998;48.714;9.414;2023-02-11T13:22:23;100537.19;;;9.14;79.30
41264;BME280;26998;48.714;9.414;2023-02-11T13:25:28;100532.72;;;8.67;82.56
41264;BME280;26998;48.714;9.414;2023-02-11T13:30:35;100528.16;;;8.40;90.54
41264;BME280;26998;48.714;9.414;2023-02-11T13:33:49;100520.44;;;8.27;90.31
41264;BME280;26998;48.714;9.414;2023-02-11T13:38:27;100521.72;;;8.23;91.18
41264;BME280;26998;48.714;9.414;2023-02-11T13:41:05;100523.41;;;8.15;91.65
41264;BME280;26998;48.714;9.414;2023-02-11T13:43:34;100518.88;;;8.54;90.53
41264;BME280;26998;48.714;9.414;2023-02-11T13:46:04;100522.81;;;8.50;90.14
41264;BME280;26998;48.714;9.414;2023-02-11T13:48:44;100508.81;;;8.48;89.50
41264;BME280;26998;48.714;9.414;2023-02-11T13:51:15;100515.34;;;8.53;90.01
41264;BME280;26998;48.714;9.414;2023-02-11T13:53:54;100515.38;;;8.34;90.73
41264;BME280;26998;48.714;9.414;2023-02-11T13:56:30;100516.78;;;8.28;90.71
41264;BME280;26998;48.714;9.414;2023-02-11T13:58:59;100510.38;;;8.12;93.01
41264;BME280;26998;48.714;9.414;2023-02-11T14:02:01;100509.13;;;7.96;95.44
41264;BME280;26998;48.714;9.414;2023-02-11T14:04:29;100512.50;;;7.89;97.15
41264;BME280;26998;48.714;9.414;2023-02-11T14:07:25;100499.72;;;8.02;97.78
41264;BME280;26998;48.714;9.414;2023-02-11T14:09:53;100509.50;;;8.40;96.85
41264;BME280;26998;48.714;9.414;2023-02-11T14:12:30;100504.50;;;8.74;96.20
41264;BME280;26998;48.714;9.414;2023-02-11T14:14:59;100505.91;;;8.78;95.68
41264;BME280;26998;48.714;9.414;2023-02-11T14:17:32;100510.75;;;9.20;94.63
41264;BME280;26998;48.714;9.414;2023-02-11T14:20:01;100508.56;;;9.06;94.42
41264;BME280;26998;48.714;9.414;2023-02-11T14:22:40;100506.63;;;8.71;97.43
41264;BME280;26998;48.714;9.414;2023-02-11T14:25:23;100506.00;;;8.40;99.79
41264;BME280;26998;48.714;9.414;2023-02-11T14:27:52;100502.19;;;8.52;100.00
41264;BME280;26998;48.714;9.414;2023-02-11T14:33:31;100492.25;;;8.54;100.00
41264;BME280;26998;48.714;9.414;2023-02-11T14:39:46;100502.31;;;8.60;100.00
41264;BME280;26998;48.714;9.414;2023-02-11T14:42:18;100501.22;;;8.43;100.00
41264;BME280;26998;48.714;9.414;2023-02-11T14:44:48;100505.94;;;8.59;100.00
41264;BME280;26998;48.714;9.414;2023-02-11T14:47:20;100502.50;;;8.86;100.00
41264;BME280;26998;48.714;9.414;2023-02-11T14:49:48;100506.91;;;9.05;100.00
41264;BME280;26998;48.714;9.414;2023-02-11T14:52:27;100513.41;;;8.93;100.00